Grand Rapids, MI (49506)

12:22 PM EST on February 14, 2016 (GMT -0500)
Fisk Lake | | Change Station
CLOSE
Current Station
Personal Weather Station
Location: Grand Rapids, MI
Elevation: 741 ft
Nearby Weather Stations

Elev 741 ft 42.95 °N, 85.62 °W | Updated 45 seconds ago

Mostly Cloudy
Mostly Cloudy
18.1 °F
Feels Like 18 °F
N
1.1
Wind Variable Wind from East
Gusts 7.0 mph

Today
High -- | Low -- °F
--% Chance of Precip.
Yesterday
High -- | Low -- °F
Precip. -- in
Pressure 30.38 in
Visibility 10.0 miles
Clouds Few 3000 ft
Mostly Cloudy 21000 ft
Windchill 18 °F
Dew Point 5 °F
Humidity 56%
Rainfall 0.00 in
Snow Depth Not available.
7:41 AM 6:11 PM
Waxing Crescent, 43% visible
METAR KGRR 141653Z 11015KT 10SM FEW030 BKN210 M09/M17 A3033 RMK AO2 SLP287 T10891167
Pressure 30.38 in
Visibility 10.0 miles
Clouds Few 3000 ft
Mostly Cloudy 21000 ft
Windchill 18 °F
Dew Point 5 °F
Humidity 56%
Rainfall 0.00 in
Snow Depth Not available.
7:41 AM 6:11 PM
Waxing Crescent, 43% visible
METAR KGRR 141653Z 11015KT 10SM FEW030 BKN210 M09/M17 A3033 RMK AO2 SLP287 T10891167

10-Day Weather Forecast

Almanac

Astronomy

Feb. 14, 2016 Rise Set
Actual Time
Civil Twilight
Nautical Twilight
Astronomical Twilight
Moon
Length of Visible Light
Length of Day
Tomorrow will be .
, % of the Moon is Illuminated

Today's Extremes

State Highs State Lows

Community

WunderPhotos

Upload Photos

1,892,856 photos uploaded!

WunderBlog® & News

Nearby

Air Quality

  Air Quality AQ Index Pollutant
Not available.

Snow Depth

Station Depth Elevation

Earthquake Activity

City Distance Mag. Time & Date
Minimum magnitude displayed is 2.5.

Coastal Water Temperatures

Place Temperature

Stations

Nearby Weather Stations

Station Location Temp. Windchill Dew Point Humidity Wind Precip. Elev Updated Type
                   

Watches & Warnings

There are currently no watches in effect.